Betekom 2018 - Herfstjogging

zaterdag 6 oktober 2018 15:29 (GMT+2) - Eindresultaat

Race-info
Sport: Hardlopen - weg
Plaats: Begijnendijk, België
Starttype: Massastart
Deelnemers: 252
Geklokt op: samsung SM-G361F
Geklokt met: Webscorer PRO 3.1
bijgewerkt: zaterdag 13 oktober 2018 09:27 (GMT+2)
Georganiseerd door: Regio Oost-Brabant Atletiek
Race website: www.roba-atletiek.be

Neem contact op met de organisator

Gebruik dit formulier om een ​​e-mail te sturen naar de organisator.

Je naam
Je e-mailadres
E-mailadres bevestigen
Bericht aan de organisator
Verzenden

  • 3 km - Overall
Plaats Startnr Naam deelnemer Lidmaatschap Categorie Geslacht Eindtijd
1235DREESEN LIAMTREMELO KADH 10:12.7--100%37,87%37,93%
2268WILLEMS STEVETIELT-WINGE MAS M35H 10:26.4+0:13.7+2,24%97,81%36,48%36,54%
3254WUYTS LODEWERCHTER SCHOLH 10:37.2+0:24.5+4,00%96,16%35,39%35,45%
4257DE VRIES JEFFTIELT-WINGE SENH 10:55.2+0:42.5+6,94%93,51%33,56%33,62%
5224GEERAERTS GERTBAAL SENH 11:03.5+0:50.8+8,29%92,34%32,72%32,78%
6216DANIELS KARELBEGIJNENDIJK KADH 11:34.3+1:21.6+13,32%88,25%29,59%29,66%
7238VOS JORENBAAL SENH 11:37.0+1:24.3+13,76%87,91%29,32%29,39%
8242HUYSMANS MARCAARSCHOT MAS M60H 12:12.5+1:59.8+19,55%83,65%25,72%25,79%
9211GEERTS MERELBETEKOM SCHOLD 12:28.8+2:16.1+22,21%81,82%24,07%24,14%
10250DECOSTER JELLEBOUTERSEM MINH 12:42.4+2:29.7+24,43%80,36%22,69%22,76%
11267VAN CAMPENHOUT DAVESCHRIEK MAS M35H 12:46.3+2:33.6+25,07%79,96%22,29%22,37%
12240COOPMANS DITTEHERSELT SCHOLD 12:54.5+2:41.8+26,41%79,11%21,46%21,54%
13230DE COCQ ROGERHEIST-O/D-BERG - BERGLOPERS MAS M65H 13:31.6+3:18.9+32,46%75,49%17,70%17,78%
14237VERBIST CHIELBEGIJNENDIJK KADH 13:39.4+3:26.7+33,74%74,77%16,91%16,99%
15221DE LANGE GEERTBAAL MAS M45H 13:45.8+3:33.1+34,78%74,19%16,26%16,34%
16246WILMAERS KELLYTIELT-WINGE SEND 13:52.5+3:39.8+35,87%73,60%15,58%15,66%
17247MERTENS JOELBINKOM MAS M55H 13:59.5+3:46.8+37,02%72,98%14,87%14,95%
18215VAN DE VLOED WIMRAMSEL PUPH 14:39.6+4:26.9+43,56%69,66%10,80%10,89%
19218MILIS ALESSIABEGIJNENDIJK PUPD 14:40.6+4:27.9+43,72%69,58%10,70%10,79%
20236VAN DER HOEVEN HANNESCHRIEK MIND 14:41.1+4:28.4+43,81%69,54%10,65%10,74%
21217MILIS NICOAARSCHOT MAS M40H 14:41.2+4:28.5+43,82%69,53%10,64%10,73%
22239COOPMANS METTEHERSELT KADD 14:41.8+4:29.1+43,92%69,48%10,58%10,67%
23220VUERINCKX FRERAMSEL PUPH 14:41.9+4:29.2+43,94%69,47%10,57%10,66%
24205SUMMA MATTISBETEKOM PUPH 15:13.6+5:00.9+49,11%67,06%7,36%7,45%
25260VLEMINX JANRAMSEL MAS M55H 15:13.7+5:01.0+49,13%67,06%7,35%7,44%
26258VAN DER MOTTE ANNELIESTIELT-WINGE SEND 15:52.5+5:39.8+55,46%64,33%3,41%3,51%
27208VERSCHOREN GUSTTREMELO BENH 15:54.6+5:41.9+55,80%64,18%3,20%3,29%
28206SUMMA SANDROBETEKOM MINH 15:55.6+5:42.9+55,97%64,12%3,10%3,19%
29225DE LANGE FLORIANBAAL PUPH 15:58.3+5:45.6+56,41%63,94%2,82%2,92%
30245JANSSENS PAULIENBETEKOM MIND 16:00.5+5:47.8+56,77%63,79%2,60%2,69%
31229VERHAEGEN LAURABETEKOM SCHOLD 16:19.2+6:06.5+59,82%62,57%0,70%0,80%
32204WOLPUT KATOBETEKOM KADD 16:21.1+6:08.4+60,13%62,45%0,51%0,61%
33214DE ROOVERE KATHLEENBAAL SEND 16:24.7+6:12.0+60,71%62,22%0,15%0,24%
34244POTEMANS ROGERGELRODE - SPORTIVA GELRODE MAS M60H 16:27.1+6:14.4+61,11%62,07%-0,10%0,00%
35259WILLEMS LIAMTIELT-WINGE BENH 16:47.0+6:34.3+64,35%60,84%-2,11%-2,02%
36213VAN DER HEYDEN ISABELLEBETEKOM MIND 16:48.8+6:36.1+64,65%60,74%-2,30%-2,20%
37212VAN DER VEKEN SARAHBETEKOM MIND 16:59.8+6:47.1+66,44%60,08%-3,41%-3,31%
38227CONINX JORRENBEGIJNENDIJK MINH 17:06.9+6:54.2+67,60%59,67%-4,13%-4,03%
39228LIEKENS DAISYTREMELO SEND 17:23.8+7:11.1+70,36%58,70%-5,85%-5,74%
40233VAN VLASSELAER ROOSBETEKOM KADD 17:29.5+7:16.8+71,29%58,38%-6,42%-6,32%
41243CUMPS WILLYGELRODE - SPORTIVA GELRODE MAS M65H 17:31.1+7:18.4+71,55%58,29%-6,59%-6,48%
42231RENIERS MARCAARSCHOT MAS M50H 17:37.0+7:24.3+72,52%57,97%-7,18%-7,08%
43265JANSSENS JOKEBETEKOM SEND 17:54.8+7:42.1+75,42%57,01%-8,99%-8,88%
44201ADAMS LILYAARSCHOT BEND 18:01.1+7:48.4+76,45%56,67%-9,63%-9,52%
45256BIERNAUX SILKEBEGIJNENDIJK MIND 18:02.2+7:49.5+76,63%56,62%-9,74%-9,63%
46264JANSSENS MIEKERAMSEL SEND 18:03.8+7:51.1+76,89%56,53%-9,90%-9,80%
47248DECA KARELAARSCHOT MAS M65H 18:05.5+7:52.8+77,17%56,44%-10,07%-9,97%
48249DEMARSIN PAULRILLAAR MAS M65H 18:10.8+7:58.1+78,03%56,17%-10,61%-10,51%
49202SMEKENS GRIETAARSCHOT MAS F40D 18:28.3+8:15.6+80,89%55,28%-12,39%-12,28%
50223VERMAELEN FABIOLALANGDORP - KNOET MAS F50D 18:30.3+8:17.6+81,21%55,18%-12,59%-12,48%
51252CORBEELS DANNYHOLSBEEK MAS M45H 18:31.7+8:19.0+81,44%55,11%-12,73%-12,62%
52234DEMAEGHT JANLANGDORP MAS M60H 18:54.5+8:41.8+85,16%54,01%-15,04%-14,93%
53485x1 xH 18:57.0+8:44.3+85,57%53,89%-15,30%-15,19%
54241VAN LIER STEFANTREMELO MAS M60H 19:08.1+8:55.4+87,38%53,37%-16,42%-16,31%
55255VAN VLASSELAER PASCALWESTERLO SENH 19:25.6+9:12.9+90,24%52,57%-18,20%-18,08%
56261GLORIEUX ROBINBEGIJNENDIJK SENH 19:29.4+9:16.7+90,86%52,39%-18,58%-18,47%
57408x2 xH 19:36.2+9:23.5+91,97%52,09%-19,27%-19,16%
58203DANCKERS NATHALIEBETEKOM MAS F40D 19:41.6+9:28.9+92,85%51,85%-19,82%-19,70%
59232HOLEMANS PAULWEZEMAAL MAS M70H 20:07.1+9:54.4+97,01%50,76%-22,41%-22,29%
60253HOEBREGS ANNICKHOLSBEEK MAS F40D 20:14.2+10:01.5+98,17%50,46%-23,13%-23,01%
61263VAN EMELEN DORIENRILLAAR SEND 20:29.5+10:16.8+100,67%49,83%-24,68%-24,56%
62262BRUYNINCKX KATRIENAARSCHOT SEND 20:42.8+10:30.1+102,84%49,30%-26,03%-25,90%
63226JANSSENS RIKLUBBEEK MAS M85H 21:34.3+11:21.6+111,25%47,34%-31,25%-31,12%
64222FRANCIS CINDYBETEKOM MAS F35D 21:45.4+11:32.7+113,06%46,94%-32,37%-32,25%
65266CALDERS SANDRAHOUTVENNE MAS F40D 21:53.9+11:41.2+114,44%46,63%-33,24%-33,11%
66209ARTS-STEMPHER LENNIEEINDHOVEN MAS M65H 22:15.2+12:02.5+117,92%45,89%-35,40%-35,26%
67251VAN ROMPAEY LOUISAARSCHOT MAS M65H 23:18.1+13:05.4+128,19%43,82%-41,77%-41,64%
  • 3 km Dames - Overall
Plaats Startnr Naam deelnemer Lidmaatschap Categorie Geslacht Eindtijd
1211GEERTS MERELBETEKOM SCHOLD 12:28.8--100%27,81%28,26%
2240COOPMANS DITTEHERSELT SCHOLD 12:54.5+0:25.7+3,43%96,68%25,34%25,80%
3246WILMAERS KELLYTIELT-WINGE SEND 13:52.5+1:23.7+11,18%89,95%19,74%20,24%
4218MILIS ALESSIABEGIJNENDIJK PUPD 14:40.6+2:11.8+17,60%85,03%15,11%15,64%
5236VAN DER HOEVEN HANNESCHRIEK MIND 14:41.1+2:12.3+17,67%84,98%15,06%15,59%
6239COOPMANS METTEHERSELT KADD 14:41.8+2:13.0+17,76%84,92%14,99%15,52%
7258VAN DER MOTTE ANNELIESTIELT-WINGE SEND 15:52.5+3:23.7+27,20%78,61%8,18%8,75%
8245JANSSENS PAULIENBETEKOM MIND 16:00.5+3:31.7+28,27%77,96%7,40%7,98%
9229VERHAEGEN LAURABETEKOM SCHOLD 16:19.2+3:50.4+30,77%76,47%5,60%6,19%
10204WOLPUT KATOBETEKOM KADD 16:21.1+3:52.3+31,02%76,32%5,42%6,01%
11214DE ROOVERE KATHLEENBAAL SEND 16:24.7+3:55.9+31,50%76,04%5,07%5,66%
12213VAN DER HEYDEN ISABELLEBETEKOM MIND 16:48.8+4:20.0+34,72%74,23%2,75%3,35%
13212VAN DER VEKEN SARAHBETEKOM MIND 16:59.8+4:31.0+36,19%73,43%1,69%2,30%
14228LIEKENS DAISYTREMELO SEND 17:23.8+4:55.0+39,40%71,74%-0,63%0,00%
15233VAN VLASSELAER ROOSBETEKOM KADD 17:29.5+5:00.7+40,16%71,35%-1,18%-0,55%
16265JANSSENS JOKEBETEKOM SEND 17:54.8+5:26.0+43,54%69,67%-3,62%-2,97%
17201ADAMS LILYAARSCHOT BEND 18:01.1+5:32.3+44,38%69,26%-4,22%-3,57%
18256BIERNAUX SILKEBEGIJNENDIJK MIND 18:02.2+5:33.4+44,52%69,19%-4,33%-3,68%
19264JANSSENS MIEKERAMSEL SEND 18:03.8+5:35.0+44,74%69,09%-4,48%-3,83%
20202SMEKENS GRIETAARSCHOT MAS F40D 18:28.3+5:59.5+48,01%67,56%-6,84%-6,18%
21223VERMAELEN FABIOLALANGDORP - KNOET MAS F50D 18:30.3+6:01.5+48,28%67,44%-7,04%-6,37%
22203DANCKERS NATHALIEBETEKOM MAS F40D 19:41.6+7:12.8+57,80%63,37%-13,91%-13,20%
23253HOEBREGS ANNICKHOLSBEEK MAS F40D 20:14.2+7:45.4+62,15%61,67%-17,05%-16,32%
24263VAN EMELEN DORIENRILLAAR SEND 20:29.5+8:00.7+64,20%60,90%-18,53%-17,79%
25262BRUYNINCKX KATRIENAARSCHOT SEND 20:42.8+8:14.0+65,97%60,25%-19,81%-19,06%
26222FRANCIS CINDYBETEKOM MAS F35D 21:45.4+9:16.6+74,33%57,36%-25,85%-25,06%
27266CALDERS SANDRAHOUTVENNE MAS F40D 21:53.9+9:25.1+75,47%56,99%-26,67%-25,88%
  • 3 km Heren - Overall
Plaats Startnr Naam deelnemer Lidmaatschap Categorie Geslacht Eindtijd
1235DREESEN LIAMTREMELO KADH 10:12.7--100%35,62%35,85%
2268WILLEMS STEVETIELT-WINGE MAS M35H 10:26.4+0:13.7+2,24%97,81%34,18%34,42%
3254WUYTS LODEWERCHTER SCHOLH 10:37.2+0:24.5+4,00%96,16%33,04%33,28%
4257DE VRIES JEFFTIELT-WINGE SENH 10:55.2+0:42.5+6,94%93,51%31,15%31,40%
5224GEERAERTS GERTBAAL SENH 11:03.5+0:50.8+8,29%92,34%30,28%30,53%
6216DANIELS KARELBEGIJNENDIJK KADH 11:34.3+1:21.6+13,32%88,25%27,04%27,31%
7238VOS JORENBAAL SENH 11:37.0+1:24.3+13,76%87,91%26,76%27,02%
8242HUYSMANS MARCAARSCHOT MAS M60H 12:12.5+1:59.8+19,55%83,65%23,03%23,31%
9250DECOSTER JELLEBOUTERSEM MINH 12:42.4+2:29.7+24,43%80,36%19,88%20,18%
10267VAN CAMPENHOUT DAVESCHRIEK MAS M35H 12:46.3+2:33.6+25,07%79,96%19,47%19,77%
11230DE COCQ ROGERHEIST-O/D-BERG - BERGLOPERS MAS M65H 13:31.6+3:18.9+32,46%75,49%14,71%15,02%
12237VERBIST CHIELBEGIJNENDIJK KADH 13:39.4+3:26.7+33,74%74,77%13,89%14,21%
13221DE LANGE GEERTBAAL MAS M45H 13:45.8+3:33.1+34,78%74,19%13,22%13,54%
14247MERTENS JOELBINKOM MAS M55H 13:59.5+3:46.8+37,02%72,98%11,78%12,10%
15215VAN DE VLOED WIMRAMSEL PUPH 14:39.6+4:26.9+43,56%69,66%7,57%7,90%
16217MILIS NICOAARSCHOT MAS M40H 14:41.2+4:28.5+43,82%69,53%7,40%7,74%
17220VUERINCKX FRERAMSEL PUPH 14:41.9+4:29.2+43,94%69,47%7,33%7,66%
18205SUMMA MATTISBETEKOM PUPH 15:13.6+5:00.9+49,11%67,06%4,00%4,35%
19260VLEMINX JANRAMSEL MAS M55H 15:13.7+5:01.0+49,13%67,06%3,99%4,33%
20208VERSCHOREN GUSTTREMELO BENH 15:54.6+5:41.9+55,80%64,18%-0,31%0,05%
21206SUMMA SANDROBETEKOM MINH 15:55.6+5:42.9+55,97%64,12%-0,42%-0,05%
22225DE LANGE FLORIANBAAL PUPH 15:58.3+5:45.6+56,41%63,94%-0,70%-0,34%
23244POTEMANS ROGERGELRODE - SPORTIVA GELRODE MAS M60H 16:27.1+6:14.4+61,11%62,07%-3,73%-3,35%
24259WILLEMS LIAMTIELT-WINGE BENH 16:47.0+6:34.3+64,35%60,84%-5,82%-5,43%
25227CONINX JORRENBEGIJNENDIJK MINH 17:06.9+6:54.2+67,60%59,67%-7,91%-7,52%
26243CUMPS WILLYGELRODE - SPORTIVA GELRODE MAS M65H 17:31.1+7:18.4+71,55%58,29%-10,45%-10,05%
27231RENIERS MARCAARSCHOT MAS M50H 17:37.0+7:24.3+72,52%57,97%-11,07%-10,67%
28248DECA KARELAARSCHOT MAS M65H 18:05.5+7:52.8+77,17%56,44%-14,07%-13,65%
29249DEMARSIN PAULRILLAAR MAS M65H 18:10.8+7:58.1+78,03%56,17%-14,63%-14,21%
30252CORBEELS DANNYHOLSBEEK MAS M45H 18:31.7+8:19.0+81,44%55,11%-16,82%-16,40%
31234DEMAEGHT JANLANGDORP MAS M60H 18:54.5+8:41.8+85,16%54,01%-19,22%-18,78%
32485x1 xH 18:57.0+8:44.3+85,57%53,89%-19,48%-19,05%
33241VAN LIER STEFANTREMELO MAS M60H 19:08.1+8:55.4+87,38%53,37%-20,65%-20,21%
34255VAN VLASSELAER PASCALWESTERLO SENH 19:25.6+9:12.9+90,24%52,57%-22,49%-22,04%
35261GLORIEUX ROBINBEGIJNENDIJK SENH 19:29.4+9:16.7+90,86%52,39%-22,88%-22,44%
36408x2 xH 19:36.2+9:23.5+91,97%52,09%-23,60%-23,15%
37232HOLEMANS PAULWEZEMAAL MAS M70H 20:07.1+9:54.4+97,01%50,76%-26,85%-26,38%
38226JANSSENS RIKLUBBEEK MAS M85H 21:34.3+11:21.6+111,25%47,34%-36,01%-35,51%
39209ARTS-STEMPHER LENNIEEINDHOVEN MAS M65H 22:15.2+12:02.5+117,92%45,89%-40,31%-39,80%
40251VAN ROMPAEY LOUISAARSCHOT MAS M65H 23:18.1+13:05.4+128,19%43,82%-46,92%-46,38%
  • 6 km - Overall
Plaats Startnr Naam deelnemer Lidmaatschap Categorie Geslacht Eindtijd
1448VANDE VELDE JORISBETEKOM SENH 20:27.2--100%34,49%34,66%
2446VAN DAELE PATRICKASSENT MAS M50H 20:28.3+0:01.1+0,09%99,91%34,43%34,60%
3452VANDEN BOSCH RUDYHOLSBEEK MAS M55H 22:29.3+2:02.1+9,95%90,95%27,97%28,16%
4430CARCHON RUBENBETEKOM JUNH 23:10.5+2:43.3+13,31%88,26%25,77%25,97%
5443BEYNAERTS KIMBEGIJNENDIJK SENH 23:19.4+2:52.2+14,03%87,69%25,29%25,49%
6496COENEN EMILYNIEUWRODE MAS F35D 23:24.3+2:57.1+14,43%87,39%25,03%25,23%
7449VERBIST WOUTERBEGIJNENDIJK MAS M45H 23:26.4+2:59.2+14,60%87,26%24,92%25,12%
8425FINOULST MARCHOEGAARDEN MAS M55H 23:45.9+3:18.7+16,19%86,06%23,88%24,08%
9415ceusters nicoMESSELBROEK SENH 23:49.9+3:22.7+16,52%85,82%23,67%23,87%
10472WUYTS WIMWERCHTER MAS M45H 24:21.7+3:54.5+19,11%83,96%21,97%22,18%
11460VAN DEN HEUVEL SVENRAMSEL MAS M35H 24:41.3+4:14.1+20,71%82,85%20,92%21,13%
12442DEMOLDER BARTBETEKOM MAS M50H 24:55.4+4:28.2+21,85%82,06%20,17%20,38%
13445MAES PETERLANGDORP - IRISH PUB MAS M40H 25:04.3+4:37.1+22,58%81,58%19,69%19,91%
14417cypers timBETEKOM MAS M35H 25:05.6+4:38.4+22,69%81,51%19,63%19,84%
15418TORFS NICOBETEKOM MAS M40H 25:50.5+5:23.3+26,34%79,15%17,23%17,45%
16436HEYLIGHEN FREDERIKBEGIJNENDIJK MAS M55H 25:55.2+5:28.0+26,73%78,91%16,98%17,20%
17444BEYERS ERIKMORKHOVEN MAS M50H 26:37.3+6:10.1+30,16%76,83%14,73%14,96%
18461tuerlinkcx bartMESSELBROEK MAS M40H 27:04.4+6:37.2+32,37%75,55%13,28%13,51%
19480VERMEULEN EDDYWESTERLO MAS M60H 27:20.7+6:53.5+33,69%74,80%12,41%12,65%
20491HEYLIGHEN LUDOWILSELE MAS M50H 27:29.3+7:02.1+34,40%74,41%11,95%12,19%
21487HERMANS BIANCAKORTENBERG SEND 27:32.2+7:05.0+34,63%74,28%11,80%12,03%
22428LISSENS DANIËLBIERBEEK MAS M70H 27:36.9+7:09.7+35,01%74,07%11,55%11,78%
23434coenen kobeRAMSEL PUPH 27:38.5+7:11.3+35,15%73,99%11,46%11,70%
24481huenaerts seppeMINH 27:39.6+7:12.4+35,23%73,95%11,40%11,64%
25420TYTGAT REDGYAARSCHOT MAS M60H 27:48.5+7:21.3+35,96%73,55%10,93%11,16%
26433VERMAELEN WILLYHOLSBEEK MAS M65H 27:50.7+7:23.5+36,14%73,45%10,81%11,05%
27453MATHEYS DANNYKESSEL-LO MAS M50H 27:53.4+7:26.2+36,36%73,34%10,67%10,90%
28469HUIJS LARSAARSCHOT SENH 28:16.0+7:48.8+38,20%72,36%9,46%9,70%
29468HUIJS WILLEMAARSCHOT MAS M50H 28:17.1+7:49.9+38,29%72,31%9,40%9,64%
30439ALEN GREETJEHOLSBEEK MAS F45D 28:18.6+7:51.4+38,41%72,25%9,32%9,56%
31490GORIS BRENTBEGIJNENDIJK JUNH 28:59.2+8:32.0+41,72%70,56%7,15%7,40%
32427VAN ROMPAEY ANDREBETEKOM MAS M60H 29:01.1+8:33.9+41,88%70,48%7,05%7,30%
33473VERTOMMEN STANAARSCHOT PUPH 29:02.3+8:35.1+41,97%70,44%6,99%7,24%
34457VAN HOOF JULIABEGIJNENDIJK MIND 29:03.5+8:36.3+42,07%70,39%6,93%7,17%
35440VAN VLASSELAER LOTTEBETEKOM MIND 29:04.2+8:37.0+42,13%70,36%6,89%7,13%
36441verhoeven FEMKEKORTRIJK-DUTSEL MIND 29:04.9+8:37.7+42,19%70,33%6,85%7,10%
37413VAN ROSSEN MAARTENBEKKEVOORT MINH 29:33.2+9:06.0+44,49%69,21%5,34%5,59%
38414CORNELIS DIRKBEKKEVOORT MAS M40H 29:34.6+9:07.4+44,61%69,15%5,26%5,52%
39455PELGRIMS NANCYSCHRIEK MAS F50D 29:42.4+9:15.2+45,24%68,85%4,85%5,10%
40476PAULI GUNTHERBETEKOM MAS M45H 29:47.8+9:20.6+45,68%68,64%4,56%4,81%
41456VERHEYDEN GUNTHERTIELT-WINGE MAS M40H 30:00.7+9:33.5+46,73%68,15%3,87%4,13%
42419VUERINCKX BARTBETEKOM MAS M40H 30:22.9+9:55.7+48,54%67,32%2,69%2,94%
43499GEDIS MARCVOSSELAAR xH 30:29.8+10:02.6+49,10%67,07%2,32%2,58%
44454ASSELBERGHS KURTGELRODE MAS M35H 30:39.9+10:12.7+49,93%66,70%1,78%2,04%
45467CEUSTERS STEFTIELT-WINGE MAS M50H 30:55.5+10:28.3+51,20%66,14%0,95%1,21%
46438DEGEEST GEERTBEKKEVOORT MAS M60H 30:56.6+10:29.4+51,29%66,10%0,89%1,15%
47450VERBIST GITTEBEGIJNENDIJK PUPD 31:09.8+10:42.6+52,36%65,63%0,18%0,45%
48410VAN REETH LEENBETEKOM MAS F35D 31:18.2+10:51.0+53,05%65,34%-0,27%0,00%
49411VERMAELEN XANDERBAAL PUPH 31:20.9+10:53.7+53,27%65,25%-0,41%-0,14%
50479DISCART WILLYBETEKOM MAS M55H 31:24.8+10:57.6+53,59%65,11%-0,62%-0,35%
51475claes annieBETEKOM MAS F55D 31:31.1+11:03.9+54,10%64,89%-0,95%-0,69%
52435SCHEERS GUIDOTREMELO MAS M60H 31:47.4+11:20.2+55,43%64,34%-1,82%-1,55%
53424CORSUS DEBBIEBEGIJNENDIJK MAS F35D 31:49.5+11:22.3+55,60%64,27%-1,94%-1,67%
54489VERVLOESEM JOACHIMAARSCHOT SENH 32:18.9+11:51.7+57,99%63,29%-3,51%-3,23%
55422VERSCHOREN LOUISTREMELO PUPH 32:22.8+11:55.6+58,31%63,17%-3,71%-3,44%
56406VERSCHOREN STEFAANTREMELO MAS M40H 32:24.6+11:57.4+58,46%63,11%-3,81%-3,54%
57403WOLPUT GEERTBETEKOM MAS M40H 32:26.4+11:59.2+58,60%63,05%-3,91%-3,63%
58407PAPS MARLEENTREMELO MAS F40D 32:30.8+12:03.6+58,96%62,91%-4,14%-3,87%
59482huenaerts BRAMWEZEMAAL MAS M35H 32:36.4+12:09.2+59,42%62,73%-4,44%-4,16%
60437GORIS CAROLINEBETEKOM MAS F40D 32:49.4+12:22.2+60,48%62,31%-5,13%-4,86%
61492AUSSELOOS KARINEWILSELE MAS F55D 33:13.8+12:46.6+62,47%61,55%-6,44%-6,15%
62431VAN ROELEN GASTONRILLAAR MAS M65H 33:25.1+12:57.9+63,39%61,20%-7,04%-6,76%
63416TUERLINCKX JEAN-LUCSCHERPENHEUVEL - KAPSALON LUC MAS M55H 33:48.9+13:21.7+65,33%60,49%-8,31%-8,02%
64401DEWIT THIEBEBETEKOM BENH 34:00.0+13:32.8+66,23%60,16%-8,90%-8,61%
65402JANSSENS ANNICKBETEKOM MAS F35D 34:00.9+13:33.7+66,31%60,13%-8,95%-8,66%
66429VANDERSLAGMOLEN MARIAVELTEM-BEISEM MAS F60D 34:37.5+14:10.3+69,29%59,07%-10,91%-10,61%
67498VAN VAERENBERGH MICKAELTREMELO MAS M35H 34:38.4+14:11.2+69,36%59,05%-10,95%-10,66%
68483WILLEMS ROGERTIELT-WINGE MAS M60H 34:53.5+14:26.3+70,59%58,62%-11,76%-11,46%
69404VAN ESPEN BRITTBETEKOM MAS F35D 34:54.7+14:27.5+70,69%58,59%-11,82%-11,53%
70478GEUKENS DANARILLAAR SEND 34:55.6+14:28.4+70,76%58,56%-11,87%-11,57%
71493VERSTREPEN CINDYWERCHTER MAS F35D 34:56.4+14:29.2+70,83%58,54%-11,91%-11,62%
72477HELSEN JANRILLAAR SENH 35:11.2+14:44.0+72,03%58,13%-12,70%-12,41%
73458MERTENS LOREBINKOM SEND 35:18.4+14:51.2+72,62%57,93%-13,09%-12,79%
74459SEMPELS NIELSLINDEN SENH 35:19.4+14:52.2+72,70%57,90%-13,14%-12,84%
75494OORTS KOENTREMELO MAS M40H 35:20.4+14:53.2+72,78%57,88%-13,20%-12,90%
76421EULAERS ANNELEENAARSCHOT SEND 35:21.7+14:54.5+72,89%57,84%-13,26%-12,96%
77423RIJNDERS ALEXANDERRAMSEL MINH 35:22.8+14:55.6+72,98%57,81%-13,32%-13,02%
78412SALIEN KASBAAL PUPH 35:24.0+14:56.8+73,08%57,78%-13,39%-13,09%
79495VAN ROY GASTONBAAL MAS M80H 35:35.7+15:08.5+74,03%57,46%-14,01%-13,71%
80466DEPRE NANCYHOEGAARDEN MAS F45D 35:45.8+15:18.6+74,85%57,19%-14,55%-14,25%
81464EIJCKMANS ERICEINDHOUT MAS M50H 35:53.8+15:26.6+75,51%56,98%-14,98%-14,67%
82432SCHOUTERS ROBERTASSENT MAS M65H 36:01.1+15:33.9+76,10%56,79%-15,37%-15,06%
83462COOLS PRISCILLABEGIJNENDIJK SEND 36:12.2+15:45.0+77,00%56,50%-15,96%-15,65%
84463SALAETS CAROLIENBOOISCHOT SEND 36:25.1+15:57.9+78,06%56,16%-16,65%-16,34%
85426VAN ORSHAEGEN NICOLEOLEN MAS F55D 37:28.5+17:01.3+83,22%54,58%-20,03%-19,72%
86484VERMEULEN MARCBETEKOM MAS M60H 37:34.4+17:07.2+83,70%54,44%-20,35%-20,03%
87465VAN DER BEKEN WOUTERTIENEN MAS M40H 37:49.2+17:22.0+84,91%54,08%-21,14%-20,82%
88474BIERNAUX YVESBEGIJNENDIJK MAS M45H 38:03.8+17:36.6+86,10%53,74%-21,92%-21,60%
89470VERHAEGEN CARLABETEKOM MAS F50D 38:06.5+17:39.3+86,32%53,67%-22,06%-21,74%
90451VAN LIER CAROLINESCHRIEK SEND 39:07.1+18:39.9+91,26%52,29%-25,30%-24,97%
91497DE GROOT CHRISTELBETEKOM MAS F50D 40:06.1+19:38.9+96,06%51,00%-28,45%-28,11%
92409DOMS LAURATREMELO SEND 40:12.4+19:45.2+96,58%50,87%-28,78%-28,44%
93488GLORIEUX JELSAAARSCHOT SEND 40:26.8+19:59.6+97,75%50,57%-29,55%-29,21%
94486VERMEULEN ANBETEKOM MAS F40D 41:39.4+21:12.2+103,67%49,10%-33,43%-33,07%
95471CORBEELS SEPPETIELT-WINGE KADH 42:57.7+22:30.5+110,05%47,61%-37,61%-37,24%
  • 6 km Dames - Overall
Plaats Startnr Naam deelnemer Lidmaatschap Categorie Geslacht Eindtijd
1496COENEN EMILYNIEUWRODE MAS F35D 23:24.3--100%30,91%32,40%
2487HERMANS BIANCAKORTENBERG SEND 27:32.2+4:07.9+17,65%85,00%18,71%20,47%
3439ALEN GREETJEHOLSBEEK MAS F45D 28:18.6+4:54.3+20,96%82,67%16,43%18,24%
4457VAN HOOF JULIABEGIJNENDIJK MIND 29:03.5+5:39.2+24,15%80,54%14,22%16,08%
5440VAN VLASSELAER LOTTEBETEKOM MIND 29:04.2+5:39.9+24,20%80,51%14,18%16,04%
6441verhoeven FEMKEKORTRIJK-DUTSEL MIND 29:04.9+5:40.6+24,25%80,48%14,15%16,01%
7455PELGRIMS NANCYSCHRIEK MAS F50D 29:42.4+6:18.1+26,92%78,79%12,31%14,20%
8450VERBIST GITTEBEGIJNENDIJK PUPD 31:09.8+7:45.5+33,15%75,10%8,01%10,00%
9410VAN REETH LEENBETEKOM MAS F35D 31:18.2+7:53.9+33,75%74,77%7,59%9,59%
10475claes annieBETEKOM MAS F55D 31:31.1+8:06.8+34,66%74,26%6,96%8,97%
11424CORSUS DEBBIEBEGIJNENDIJK MAS F35D 31:49.5+8:25.2+35,98%73,54%6,05%8,09%
12407PAPS MARLEENTREMELO MAS F40D 32:30.8+9:06.5+38,92%71,99%4,02%6,10%
13437GORIS CAROLINEBETEKOM MAS F40D 32:49.4+9:25.1+40,24%71,31%3,11%5,20%
14492AUSSELOOS KARINEWILSELE MAS F55D 33:13.8+9:49.5+41,98%70,43%1,90%4,03%
15402JANSSENS ANNICKBETEKOM MAS F35D 34:00.9+10:36.6+45,33%68,81%-0,41%1,76%
16429VANDERSLAGMOLEN MARIAVELTEM-BEISEM MAS F60D 34:37.5+11:13.2+47,94%67,60%-2,21%0,00%
17404VAN ESPEN BRITTBETEKOM MAS F35D 34:54.7+11:30.4+49,16%67,04%-3,06%-0,83%
18478GEUKENS DANARILLAAR SEND 34:55.6+11:31.3+49,23%67,01%-3,10%-0,87%
19493VERSTREPEN CINDYWERCHTER MAS F35D 34:56.4+11:32.1+49,28%66,99%-3,14%-0,91%
20458MERTENS LOREBINKOM SEND 35:18.4+11:54.1+50,85%66,29%-4,23%-1,97%
21421EULAERS ANNELEENAARSCHOT SEND 35:21.7+11:57.4+51,09%66,19%-4,39%-2,13%
22466DEPRE NANCYHOEGAARDEN MAS F45D 35:45.8+12:21.5+52,80%65,44%-5,57%-3,29%
23462COOLS PRISCILLABEGIJNENDIJK SEND 36:12.2+12:47.9+54,68%64,65%-6,87%-4,56%
24463SALAETS CAROLIENBOOISCHOT SEND 36:25.1+13:00.8+55,60%64,27%-7,51%-5,18%
25426VAN ORSHAEGEN NICOLEOLEN MAS F55D 37:28.5+14:04.2+60,12%62,45%-10,63%-8,23%
26470VERHAEGEN CARLABETEKOM MAS F50D 38:06.5+14:42.2+62,82%61,42%-12,50%-10,06%
27451VAN LIER CAROLINESCHRIEK SEND 39:07.1+15:42.8+67,14%59,83%-15,48%-12,98%
28497DE GROOT CHRISTELBETEKOM MAS F50D 40:06.1+16:41.8+71,34%58,36%-18,38%-15,82%
29409DOMS LAURATREMELO SEND 40:12.4+16:48.1+71,79%58,21%-18,69%-16,12%
30488GLORIEUX JELSAAARSCHOT SEND 40:26.8+17:02.5+72,81%57,87%-19,40%-16,81%
31486VERMEULEN ANBETEKOM MAS F40D 41:39.4+18:15.1+77,98%56,19%-22,97%-20,31%
  • 6 km Heren - Overall
Plaats Startnr Naam deelnemer Lidmaatschap Categorie Geslacht Eindtijd
1448VANDE VELDE JORISBETEKOM SENH 20:27.2--100%31,67%31,10%
2446VAN DAELE PATRICKASSENT MAS M50H 20:28.3+0:01.1+0,09%99,91%31,61%31,04%
3452VANDEN BOSCH RUDYHOLSBEEK MAS M55H 22:29.3+2:02.1+9,95%90,95%24,87%24,25%
4430CARCHON RUBENBETEKOM JUNH 23:10.5+2:43.3+13,31%88,26%22,58%21,93%
5443BEYNAERTS KIMBEGIJNENDIJK SENH 23:19.4+2:52.2+14,03%87,69%22,09%21,43%
6449VERBIST WOUTERBEGIJNENDIJK MAS M45H 23:26.4+2:59.2+14,60%87,26%21,70%21,04%
7425FINOULST MARCHOEGAARDEN MAS M55H 23:45.9+3:18.7+16,19%86,06%20,61%19,95%
8415ceusters nicoMESSELBROEK SENH 23:49.9+3:22.7+16,52%85,82%20,39%19,72%
9472WUYTS WIMWERCHTER MAS M45H 24:21.7+3:54.5+19,11%83,96%18,62%17,94%
10460VAN DEN HEUVEL SVENRAMSEL MAS M35H 24:41.3+4:14.1+20,71%82,85%17,53%16,84%
11442DEMOLDER BARTBETEKOM MAS M50H 24:55.4+4:28.2+21,85%82,06%16,74%16,05%
12445MAES PETERLANGDORP - IRISH PUB MAS M40H 25:04.3+4:37.1+22,58%81,58%16,24%15,55%
13417cypers timBETEKOM MAS M35H 25:05.6+4:38.4+22,69%81,51%16,17%15,47%
14418TORFS NICOBETEKOM MAS M40H 25:50.5+5:23.3+26,34%79,15%13,67%12,95%
15436HEYLIGHEN FREDERIKBEGIJNENDIJK MAS M55H 25:55.2+5:28.0+26,73%78,91%13,41%12,69%
16444BEYERS ERIKMORKHOVEN MAS M50H 26:37.3+6:10.1+30,16%76,83%11,07%10,32%
17461tuerlinkcx bartMESSELBROEK MAS M40H 27:04.4+6:37.2+32,37%75,55%9,56%8,80%
18480VERMEULEN EDDYWESTERLO MAS M60H 27:20.7+6:53.5+33,69%74,80%8,65%7,89%
19491HEYLIGHEN LUDOWILSELE MAS M50H 27:29.3+7:02.1+34,40%74,41%8,17%7,41%
20428LISSENS DANIËLBIERBEEK MAS M70H 27:36.9+7:09.7+35,01%74,07%7,75%6,98%
21434coenen kobeRAMSEL PUPH 27:38.5+7:11.3+35,15%73,99%7,66%6,89%
22481huenaerts seppeMINH 27:39.6+7:12.4+35,23%73,95%7,60%6,83%
23420TYTGAT REDGYAARSCHOT MAS M60H 27:48.5+7:21.3+35,96%73,55%7,10%6,33%
24433VERMAELEN WILLYHOLSBEEK MAS M65H 27:50.7+7:23.5+36,14%73,45%6,98%6,20%
25453MATHEYS DANNYKESSEL-LO MAS M50H 27:53.4+7:26.2+36,36%73,34%6,83%6,05%
26469HUIJS LARSAARSCHOT SENH 28:16.0+7:48.8+38,20%72,36%5,57%4,78%
27468HUIJS WILLEMAARSCHOT MAS M50H 28:17.1+7:49.9+38,29%72,31%5,51%4,72%
28490GORIS BRENTBEGIJNENDIJK JUNH 28:59.2+8:32.0+41,72%70,56%3,17%2,36%
29427VAN ROMPAEY ANDREBETEKOM MAS M60H 29:01.1+8:33.9+41,88%70,48%3,06%2,25%
30473VERTOMMEN STANAARSCHOT PUPH 29:02.3+8:35.1+41,97%70,44%2,99%2,18%
31413VAN ROSSEN MAARTENBEKKEVOORT MINH 29:33.2+9:06.0+44,49%69,21%1,27%0,45%
32414CORNELIS DIRKBEKKEVOORT MAS M40H 29:34.6+9:07.4+44,61%69,15%1,20%0,37%
33476PAULI GUNTHERBETEKOM MAS M45H 29:47.8+9:20.6+45,68%68,64%0,46%-0,37%
34456VERHEYDEN GUNTHERTIELT-WINGE MAS M40H 30:00.7+9:33.5+46,73%68,15%-0,26%-1,09%
35419VUERINCKX BARTBETEKOM MAS M40H 30:22.9+9:55.7+48,54%67,32%-1,49%-2,34%
36499GEDIS MARCVOSSELAAR xH 30:29.8+10:02.6+49,10%67,07%-1,88%-2,73%
37454ASSELBERGHS KURTGELRODE MAS M35H 30:39.9+10:12.7+49,93%66,70%-2,44%-3,30%
38467CEUSTERS STEFTIELT-WINGE MAS M50H 30:55.5+10:28.3+51,20%66,14%-3,31%-4,17%
39438DEGEEST GEERTBEKKEVOORT MAS M60H 30:56.6+10:29.4+51,29%66,10%-3,37%-4,23%
40411VERMAELEN XANDERBAAL PUPH 31:20.9+10:53.7+53,27%65,25%-4,72%-5,60%
41479DISCART WILLYBETEKOM MAS M55H 31:24.8+10:57.6+53,59%65,11%-4,94%-5,82%
42435SCHEERS GUIDOTREMELO MAS M60H 31:47.4+11:20.2+55,43%64,34%-6,20%-7,09%
43489VERVLOESEM JOACHIMAARSCHOT SENH 32:18.9+11:51.7+57,99%63,29%-7,95%-8,85%
44422VERSCHOREN LOUISTREMELO PUPH 32:22.8+11:55.6+58,31%63,17%-8,17%-9,07%
45406VERSCHOREN STEFAANTREMELO MAS M40H 32:24.6+11:57.4+58,46%63,11%-8,27%-9,17%
46403WOLPUT GEERTBETEKOM MAS M40H 32:26.4+11:59.2+58,60%63,05%-8,37%-9,27%
47482huenaerts BRAMWEZEMAAL MAS M35H 32:36.4+12:09.2+59,42%62,73%-8,93%-9,84%
48431VAN ROELEN GASTONRILLAAR MAS M65H 33:25.1+12:57.9+63,39%61,20%-11,64%-12,57%
49416TUERLINCKX JEAN-LUCSCHERPENHEUVEL - KAPSALON LUC MAS M55H 33:48.9+13:21.7+65,33%60,49%-12,96%-13,91%
50401DEWIT THIEBEBETEKOM BENH 34:00.0+13:32.8+66,23%60,16%-13,58%-14,53%
51498VAN VAERENBERGH MICKAELTREMELO MAS M35H 34:38.4+14:11.2+69,36%59,05%-15,72%-16,69%
52483WILLEMS ROGERTIELT-WINGE MAS M60H 34:53.5+14:26.3+70,59%58,62%-16,56%-17,53%
53477HELSEN JANRILLAAR SENH 35:11.2+14:44.0+72,03%58,13%-17,55%-18,53%
54459SEMPELS NIELSLINDEN SENH 35:19.4+14:52.2+72,70%57,90%-18,00%-18,99%
55494OORTS KOENTREMELO MAS M40H 35:20.4+14:53.2+72,78%57,88%-18,06%-19,04%
56423RIJNDERS ALEXANDERRAMSEL MINH 35:22.8+14:55.6+72,98%57,81%-18,19%-19,18%
57412SALIEN KASBAAL PUPH 35:24.0+14:56.8+73,08%57,78%-18,26%-19,25%
58495VAN ROY GASTONBAAL MAS M80H 35:35.7+15:08.5+74,03%57,46%-18,91%-19,90%
59464EIJCKMANS ERICEINDHOUT MAS M50H 35:53.8+15:26.6+75,51%56,98%-19,92%-20,92%
60432SCHOUTERS ROBERTASSENT MAS M65H 36:01.1+15:33.9+76,10%56,79%-20,32%-21,33%
61484VERMEULEN MARCBETEKOM MAS M60H 37:34.4+17:07.2+83,70%54,44%-25,52%-26,57%
62465VAN DER BEKEN WOUTERTIENEN MAS M40H 37:49.2+17:22.0+84,91%54,08%-26,34%-27,40%
63474BIERNAUX YVESBEGIJNENDIJK MAS M45H 38:03.8+17:36.6+86,10%53,74%-27,16%-28,22%
64471CORBEELS SEPPETIELT-WINGE KADH 42:57.7+22:30.5+110,05%47,61%-43,52%-44,72%
  • 9 km - Overall
Plaats Startnr Naam deelnemer Lidmaatschap Categorie Geslacht Eindtijd
1814VANDEN BOSCH BARTHOLSBEEK SENH 30:09.1--100%34,38%32,53%
2805COREMANS DAANBETEKOM SENH 31:44.0+1:34.9+5,25%95,02%30,94%28,99%
3810RIJNDERS JEROENRAMSEL MAS M40H 32:29.7+2:20.6+7,77%92,79%29,28%27,29%
4824VAN BAEL TIMHALLAAR SENH 33:36.2+3:27.1+11,45%89,73%26,87%24,81%
5804STRAETMANS GILBERTBOOISCHOT MAS M60H 35:32.9+5:23.8+17,90%84,82%22,64%20,46%
6815CHANTILLON VINCENTHAASRODE SENH 35:41.9+5:32.8+18,40%84,46%22,31%20,12%
71146VERLAENEN IEFROTSELAAR SENH 36:02.1+5:53.0+19,51%83,67%21,58%19,37%
8806VANDEUREN TIMOTREMELO JUNH 36:40.0+6:30.9+21,61%82,23%20,21%17,95%
9828vermeylen michaelHOUTVENNE SENH 37:11.2+7:02.1+23,33%81,08%19,07%16,79%
10800COSTERMANS TIMTESTELT MAS M35H 37:12.2+7:03.1+23,39%81,05%19,04%16,75%
11834GIJBELS MAARTENHERSELT MAS M35H 38:37.7+8:28.6+28,11%78,06%15,94%13,56%
12787CEULEMANS GEERTBAAL MAS M40H 39:05.4+8:56.3+29,64%77,13%14,93%12,53%
13813VAN DER HOEVEN GUYSCHRIEK MAS M40H 39:26.3+9:17.2+30,80%76,45%14,17%11,75%
14802VAN HOOF EDDYBEGIJNENDIJK MAS M55H 39:37.5+9:28.4+31,42%76,09%13,77%11,33%
15809VERMAELEN WENDYHOLSBEEK MAS F35D 40:07.8+9:58.7+33,09%75,13%12,67%10,20%
16795COREMANS CYRIELAARSCHOT MAS M70H 40:23.6+10:14.5+33,97%74,65%12,10%9,61%
17791EULAERS STEVENAARSCHOT MAS M35H 40:47.5+10:38.4+35,29%73,92%11,23%8,72%
18822RAEYMAEKERS CHANTALHOLSBEEK MAS F50D 41:02.8+10:53.7+36,13%73,46%10,67%8,15%
19801VAN AERSCHOT LUCHEVERLEE MAS M55H 41:03.8+10:54.7+36,19%73,43%10,64%8,12%
20783LUYTS EMIELWINKSELE MAS M55H 41:51.3+11:42.2+38,81%72,04%8,92%6,34%
21823VERMEIRE FLEURBETEKOM MAS F40D 42:29.2+12:20.1+40,91%70,97%7,54%4,93%
22784KUSSENEERS LUCRUMST - BERGLOPERS MAS M60H 42:40.5+12:31.4+41,53%70,65%7,13%4,51%
23780teniers RONIBEGIJNENDIJK MAS F55D 42:50.3+12:41.2+42,08%70,38%6,78%4,14%
24827CORTHOUT TOMBEGIJNENDIJK MAS M40H 42:54.6+12:45.5+42,31%70,27%6,62%3,98%
25825VAN PASSEL JANLANGDORP MAS M50H 43:06.6+12:57.5+42,98%69,94%6,18%3,54%
26817BRUELEMANS DAVYROTSELAAR MAS M40H 43:11.4+13:02.3+43,24%69,81%6,01%3,36%
27835JANSEN KRISHERSELT MAS M35H 43:24.3+13:15.2+43,96%69,47%5,54%2,88%
28819COOLS FRANSWESTERLO MAS M60H 44:10.0+14:00.9+46,48%68,27%3,88%1,17%
29818HAEMHOUTS MONTONGERLO MAS M65H 44:30.5+14:21.4+47,61%67,74%3,14%0,41%
30798VERRETH LIEVEHERENT SEND 44:41.4+14:32.3+48,22%67,47%2,75%0,00%
31812SIMONS DOMINIQUEDIEST MAS M50H 44:43.4+14:34.3+48,33%67,42%2,67%-0,07%
32820WILLEMS MARCBAAL MAS M50H 45:10.5+15:01.4+49,83%66,74%1,69%-1,09%
33811CLAES BERTWEZEMAAL MAS M45H 46:03.7+15:54.6+52,77%65,46%-0,24%-3,07%
34832DISCART JOBETEKOM MAS M50H 46:15.3+16:06.2+53,41%65,19%-0,66%-3,50%
35821VAN DEN BROECK TOMITEGEM MAS M45H 46:49.6+16:40.5+55,30%64,39%-1,90%-4,78%
36794DE COCK NICOBAAL MAS M40H 49:18.7+19:09.6+63,55%61,15%-7,31%-10,34%
37830DISCART MIABEGIJNENDIJK MAS F55D 49:36.2+19:27.1+64,51%60,79%-7,95%-10,99%
38790DE RIJCK CHRISAARSCHOT MAS F50D 49:40.8+19:31.7+64,77%60,69%-8,11%-11,17%
39796NIJS LIESEBETEKOM SEND 51:15.2+21:06.1+69,99%58,83%-11,54%-14,69%
40797BRUYNINCKX NIELSRILLAAR SENH 51:16.3+21:07.2+70,05%58,81%-11,58%-14,73%
41793DE RYCK PEGGYBETEKOM MAS F45D 51:19.6+21:10.5+70,23%58,74%-11,70%-14,85%
42808VAN DE WEYER JOSOLMEN MAS M65H 51:20.7+21:11.6+70,29%58,72%-11,74%-14,89%
43789BOGEMANS LUDOLIER MAS M60H 51:26.5+21:17.4+70,61%58,61%-11,95%-15,11%
44788SALIEN GERRYBAAL MAS M40H 51:52.6+21:43.5+72,05%58,12%-12,89%-16,08%
45837GUELINCKX SARAHTIENEN - JTT TIENEN SEND 52:27.7+22:18.6+73,99%57,47%-14,17%-17,39%
46836MAES ULRIEKEGLABBEEK-ZUURBEMDE SEND 52:28.7+22:19.6+74,05%57,46%-14,20%-17,43%
47838VAN ELSEN KARINEBETEKOM - KNOET MAS F55D 52:44.3+22:35.2+74,91%57,17%-14,77%-18,01%
48803GOOVAERTS JEFHEIST-O/D-BERG MAS M65H 52:45.3+22:36.2+74,97%57,15%-14,81%-18,05%
49792VERBEECK DAISYAARSCHOT MAS F35D 52:46.9+22:37.8+75,05%57,13%-14,86%-18,11%
50807VAN GEEL HUGOOLMEN MAS M60H 52:53.0+22:43.9+75,39%57,02%-15,08%-18,33%
51782HENNELO KATOBETEKOM SEND 53:39.0+23:29.9+77,93%56,20%-16,75%-20,05%
52786STEMPHER HARRIEEINDHOVEN MAS M65H 54:01.2+23:52.1+79,16%55,82%-17,56%-20,88%
53829WUYTS INGRIDBETEKOM MAS F55D 55:39.0+25:29.9+84,57%54,18%-21,11%-24,52%
54799VAN AVONDT HANSLEUVEN MAS M45H 57:02.3+26:53.2+89,17%52,86%-24,13%-27,63%
55831JOPPEN HENKROTSELAAR MAS M50H 57:33.2+27:24.1+90,88%52,39%-25,25%-28,78%
561150ROSIER KIMBAAL SEND 1:00:27.9+30:18.8+100,54%49,87%-31,58%-35,30%
57785DRIESSENS EDDYHECHTEL MAS M60H 1:00:37.5+30:28.4+101,07%49,73%-31,93%-35,66%
58833GELIN GREETHOLSBEEK MAS F50D 1:01:19.0+31:09.9+103,36%49,17%-33,44%-37,20%
59816VAN DEN HEUVEL JEFREET MAS M65H 1:06:12.8+36:03.7+119,60%45,54%-44,09%-48,16%
  • 9 km Dames - Overall
Plaats Startnr Naam deelnemer Lidmaatschap Categorie Geslacht Eindtijd
1809VERMAELEN WENDYHOLSBEEK MAS F35D 40:07.8--100%20,17%21,81%
2822RAEYMAEKERS CHANTALHOLSBEEK MAS F50D 41:02.8+0:55.0+2,28%97,77%18,35%20,03%
3823VERMEIRE FLEURBETEKOM MAS F40D 42:29.2+2:21.4+5,87%94,45%15,48%17,22%
4780teniers RONIBEGIJNENDIJK MAS F55D 42:50.3+2:42.5+6,75%93,68%14,78%16,54%
5798VERRETH LIEVEHERENT SEND 44:41.4+4:33.6+11,36%89,80%11,10%12,93%
6830DISCART MIABEGIJNENDIJK MAS F55D 49:36.2+9:28.4+23,61%80,90%1,33%3,36%
7790DE RIJCK CHRISAARSCHOT MAS F50D 49:40.8+9:33.0+23,80%80,78%1,17%3,21%
8796NIJS LIESEBETEKOM SEND 51:15.2+11:07.4+27,72%78,30%-1,96%0,14%
9793DE RYCK PEGGYBETEKOM MAS F45D 51:19.6+11:11.8+27,90%78,19%-2,10%0,00%
10837GUELINCKX SARAHTIENEN - JTT TIENEN SEND 52:27.7+12:19.9+30,73%76,49%-4,36%-2,21%
11836MAES ULRIEKEGLABBEEK-ZUURBEMDE SEND 52:28.7+12:20.9+30,77%76,47%-4,39%-2,24%
12838VAN ELSEN KARINEBETEKOM - KNOET MAS F55D 52:44.3+12:36.5+31,42%76,09%-4,91%-2,75%
13792VERBEECK DAISYAARSCHOT MAS F35D 52:46.9+12:39.1+31,53%76,03%-5,00%-2,83%
14782HENNELO KATOBETEKOM SEND 53:39.0+13:31.2+33,69%74,80%-6,72%-4,53%
15829WUYTS INGRIDBETEKOM MAS F55D 55:39.0+15:31.2+38,67%72,11%-10,70%-8,42%
161150ROSIER KIMBAAL SEND 1:00:27.9+20:20.1+50,67%66,37%-20,28%-17,80%
17833GELIN GREETHOLSBEEK MAS F50D 1:01:19.0+21:11.2+52,80%65,45%-21,97%-19,46%
  • 9 km Heren - Overall
Plaats Startnr Naam deelnemer Lidmaatschap Categorie Geslacht Eindtijd
1814VANDEN BOSCH BARTHOLSBEEK SENH 30:09.1--100%31,79%30,12%
2805COREMANS DAANBETEKOM SENH 31:44.0+1:34.9+5,25%95,02%28,21%26,46%
3810RIJNDERS JEROENRAMSEL MAS M40H 32:29.7+2:20.6+7,77%92,79%26,49%24,69%
4824VAN BAEL TIMHALLAAR SENH 33:36.2+3:27.1+11,45%89,73%23,98%22,12%
5804STRAETMANS GILBERTBOOISCHOT MAS M60H 35:32.9+5:23.8+17,90%84,82%19,58%17,62%
6815CHANTILLON VINCENTHAASRODE SENH 35:41.9+5:32.8+18,40%84,46%19,24%17,27%
71146VERLAENEN IEFROTSELAAR SENH 36:02.1+5:53.0+19,51%83,67%18,48%16,49%
8806VANDEUREN TIMOTREMELO JUNH 36:40.0+6:30.9+21,61%82,23%17,05%15,03%
9828vermeylen michaelHOUTVENNE SENH 37:11.2+7:02.1+23,33%81,08%15,87%13,82%
10800COSTERMANS TIMTESTELT MAS M35H 37:12.2+7:03.1+23,39%81,05%15,84%13,78%
11834GIJBELS MAARTENHERSELT MAS M35H 38:37.7+8:28.6+28,11%78,06%12,61%10,48%
12787CEULEMANS GEERTBAAL MAS M40H 39:05.4+8:56.3+29,64%77,13%11,57%9,41%
13813VAN DER HOEVEN GUYSCHRIEK MAS M40H 39:26.3+9:17.2+30,80%76,45%10,78%8,60%
14802VAN HOOF EDDYBEGIJNENDIJK MAS M55H 39:37.5+9:28.4+31,42%76,09%10,36%8,17%
15795COREMANS CYRIELAARSCHOT MAS M70H 40:23.6+10:14.5+33,97%74,65%8,62%6,39%
16791EULAERS STEVENAARSCHOT MAS M35H 40:47.5+10:38.4+35,29%73,92%7,72%5,47%
17801VAN AERSCHOT LUCHEVERLEE MAS M55H 41:03.8+10:54.7+36,19%73,43%7,10%4,84%
18783LUYTS EMIELWINKSELE MAS M55H 41:51.3+11:42.2+38,81%72,04%5,31%3,00%
19784KUSSENEERS LUCRUMST - BERGLOPERS MAS M60H 42:40.5+12:31.4+41,53%70,65%3,46%1,10%
20827CORTHOUT TOMBEGIJNENDIJK MAS M40H 42:54.6+12:45.5+42,31%70,27%2,93%0,56%
21825VAN PASSEL JANLANGDORP MAS M50H 43:06.6+12:57.5+42,98%69,94%2,47%0,09%
22817BRUELEMANS DAVYROTSELAAR MAS M40H 43:11.4+13:02.3+43,24%69,81%2,29%-0,09%
23835JANSEN KRISHERSELT MAS M35H 43:24.3+13:15.2+43,96%69,47%1,81%-0,59%
24819COOLS FRANSWESTERLO MAS M60H 44:10.0+14:00.9+46,48%68,27%0,08%-2,36%
25818HAEMHOUTS MONTONGERLO MAS M65H 44:30.5+14:21.4+47,61%67,74%-0,69%-3,15%
26812SIMONS DOMINIQUEDIEST MAS M50H 44:43.4+14:34.3+48,33%67,42%-1,18%-3,65%
27820WILLEMS MARCBAAL MAS M50H 45:10.5+15:01.4+49,83%66,74%-2,20%-4,69%
28811CLAES BERTWEZEMAAL MAS M45H 46:03.7+15:54.6+52,77%65,46%-4,20%-6,75%
29832DISCART JOBETEKOM MAS M50H 46:15.3+16:06.2+53,41%65,19%-4,64%-7,20%
30821VAN DEN BROECK TOMITEGEM MAS M45H 46:49.6+16:40.5+55,30%64,39%-5,93%-8,52%
31794DE COCK NICOBAAL MAS M40H 49:18.7+19:09.6+63,55%61,15%-11,56%-14,28%
32797BRUYNINCKX NIELSRILLAAR SENH 51:16.3+21:07.2+70,05%58,81%-15,99%-18,82%
33808VAN DE WEYER JOSOLMEN MAS M65H 51:20.7+21:11.6+70,29%58,72%-16,16%-18,99%
34789BOGEMANS LUDOLIER MAS M60H 51:26.5+21:17.4+70,61%58,61%-16,37%-19,22%
35788SALIEN GERRYBAAL MAS M40H 51:52.6+21:43.5+72,05%58,12%-17,36%-20,22%
36803GOOVAERTS JEFHEIST-O/D-BERG MAS M65H 52:45.3+22:36.2+74,97%57,15%-19,35%-22,26%
37807VAN GEEL HUGOOLMEN MAS M60H 52:53.0+22:43.9+75,39%57,02%-19,64%-22,56%
38786STEMPHER HARRIEEINDHOVEN MAS M65H 54:01.2+23:52.1+79,16%55,82%-22,21%-25,19%
39799VAN AVONDT HANSLEUVEN MAS M45H 57:02.3+26:53.2+89,17%52,86%-29,04%-32,19%
40831JOPPEN HENKROTSELAAR MAS M50H 57:33.2+27:24.1+90,88%52,39%-30,20%-33,38%
41785DRIESSENS EDDYHECHTEL MAS M60H 1:00:37.5+30:28.4+101,07%49,73%-37,15%-40,50%
42816VAN DEN HEUVEL JEFREET MAS M65H 1:06:12.8+36:03.7+119,60%45,54%-49,79%-53,45%
  • 12 km - Overall
Plaats Startnr Naam deelnemer Lidmaatschap Categorie Geslacht Eindtijd
11127WOUTERS CHRISDIEST MAS M45H 42:09.6--100%22,49%23,74%
21132NIJS MICHIELHOLSBEEK SENH 43:12.9+1:03.3+2,50%97,56%20,55%21,83%
31152APPELEN JOLANGDORP - KNOET MAS M40H 43:36.4+1:26.8+3,43%96,68%19,83%21,12%
41147MEYLEMANS STEFHEIST-O/D-BERG SENH 44:48.3+2:38.7+6,27%94,10%17,63%18,95%
51131VERHAEGEN RAFBETEKOM MAS M45H 46:06.0+3:56.4+9,35%91,45%15,25%16,61%
61135SPELTINCKX KRISTOFMESSELBROEK MAS M40H 46:07.0+3:57.4+9,38%91,42%15,22%16,58%
71137ROM GERTWILSELE MAS M45H 46:27.8+4:18.2+10,21%90,74%14,58%15,95%
81130DE VOCHT PETERAARSCHOT - KNOET MAS M55H 46:51.6+4:42.0+11,15%89,97%13,85%15,23%
91153VAN TULDER KOENLANGDORP MAS M45H 47:04.9+4:55.3+11,67%89,55%13,44%14,83%
101138COOPMANS BENNYHERSELT MAS M50H 47:21.2+5:11.6+12,32%89,03%12,94%14,34%
111123HEYLEN DIRKWESTERLO MAS M50H 49:29.1+7:19.5+17,37%85,20%9,02%10,49%
121151WILLEKENS MARIJKEKESSEL-LO - KNOET MAS F50D 51:59.2+9:49.6+23,31%81,10%4,43%5,96%
131126GOMMERS KURTBETEKOM MAS M40H 54:03.1+11:53.5+28,21%78,00%0,63%2,22%
141133VERMAELEN JOHANHOLSBEEK MAS M40H 55:04.4+12:54.8+30,63%76,55%-1,25%0,38%
151155VERMEYLEN PAULBAAL MAS M55H 55:11.7+13:02.1+30,92%76,38%-1,47%0,16%
161125VRANCKEN JIMMYGELRODE MAS M45H 55:16.9+13:07.3+31,12%76,26%-1,63%0,00%
171139WOUTERS NICKYWILSELE MAS M35H 55:37.3+13:27.7+31,93%75,80%-2,26%-0,62%
181142TESTELMANS GLENNWESTERLO SENH 56:02.3+13:52.7+32,92%75,23%-3,02%-1,37%
191129CHEVROLET JELISBAAL SENH 56:32.0+14:22.4+34,09%74,58%-3,93%-2,26%
201141VAN CAUWENBERGHS PETERHEUSDEN (LIMB.) MAS M35H 57:08.5+14:58.9+35,54%73,78%-5,05%-3,36%
211136ANTHONIS RUDITREMELO MAS M55H 57:12.9+15:03.3+35,71%73,69%-5,19%-3,50%
221124VAN STYVOORT TOMBEGIJNENDIJK MAS M45H 57:54.4+15:44.8+37,35%72,81%-6,46%-4,75%
231143TESTELMANS LUCHERSELT MAS M55H 58:39.5+16:29.9+39,13%71,87%-7,84%-6,11%
241134VERDOODT KOENBAAL MAS M50H 59:33.0+17:23.4+41,25%70,80%-9,48%-7,72%
251154TORFS STIJNGELRODE - SPORTIVA GELRODE SENH 1:01:19.8+19:10.2+45,47%68,74%-12,75%-10,94%
261128SMETS VEERLEAARSCHOT MAS F35D 1:02:23.1+20:13.5+47,97%67,58%-14,69%-12,85%
271149PUT EVELIENTILDONK SEND 1:02:52.3+20:42.7+49,13%67,06%-15,59%-13,73%
281145JANSSENS PATRICKBEGIJNENDIJK MAS M45H 1:03:07.0+20:57.4+49,71%66,80%-16,04%-14,17%
291140PEETERS WIMHAKENDOVER MAS M40H 1:05:09.7+23:00.1+54,56%64,70%-19,80%-17,87%
301144GLINDEBO KIRSTENTIENEN - JTT TIENEN MAS F55D 1:06:37.4+24:27.8+58,02%63,28%-22,48%-20,52%
311156CLIJMANS MIAVOSSELAAR MAS F50D 1:11:13.0+29:03.4+68,92%59,20%-30,93%-28,83%
  • 12 km Dames - Overall
Plaats Startnr Naam deelnemer Lidmaatschap Categorie Geslacht Eindtijd
11151WILLEKENS MARIJKEKESSEL-LO - KNOET MAS F50D 51:59.2--100%17,50%17,31%
21128SMETS VEERLEAARSCHOT MAS F35D 1:02:23.1+10:23.9+20,00%83,33%1,00%0,77%
31149PUT EVELIENTILDONK SEND 1:02:52.3+10:53.1+20,94%82,69%0,23%0,00%
41144GLINDEBO KIRSTENTIENEN - JTT TIENEN MAS F55D 1:06:37.4+14:38.2+28,15%78,03%-5,72%-5,97%
51156CLIJMANS MIAVOSSELAAR MAS F50D 1:11:13.0+19:13.8+36,99%73,00%-13,01%-13,27%
  • 12 km Heren - Overall
Plaats Startnr Naam deelnemer Lidmaatschap Categorie Geslacht Eindtijd
11127WOUTERS CHRISDIEST MAS M45H 42:09.6--100%20,05%23,53%
21132NIJS MICHIELHOLSBEEK SENH 43:12.9+1:03.3+2,50%97,56%18,05%21,62%
31152APPELEN JOLANGDORP - KNOET MAS M40H 43:36.4+1:26.8+3,43%96,68%17,31%20,91%
41147MEYLEMANS STEFHEIST-O/D-BERG SENH 44:48.3+2:38.7+6,27%94,10%15,04%18,73%
51131VERHAEGEN RAFBETEKOM MAS M45H 46:06.0+3:56.4+9,35%91,45%12,58%16,39%
61135SPELTINCKX KRISTOFMESSELBROEK MAS M40H 46:07.0+3:57.4+9,38%91,42%12,55%16,36%
71137ROM GERTWILSELE MAS M45H 46:27.8+4:18.2+10,21%90,74%11,89%15,73%
81130DE VOCHT PETERAARSCHOT - KNOET MAS M55H 46:51.6+4:42.0+11,15%89,97%11,14%15,01%
91153VAN TULDER KOENLANGDORP MAS M45H 47:04.9+4:55.3+11,67%89,55%10,72%14,61%
101138COOPMANS BENNYHERSELT MAS M50H 47:21.2+5:11.6+12,32%89,03%10,21%14,11%
111123HEYLEN DIRKWESTERLO MAS M50H 49:29.1+7:19.5+17,37%85,20%6,16%10,25%
121126GOMMERS KURTBETEKOM MAS M40H 54:03.1+11:53.5+28,21%78,00%-2,50%1,96%
131133VERMAELEN JOHANHOLSBEEK MAS M40H 55:04.4+12:54.8+30,63%76,55%-4,43%0,11%
141155VERMEYLEN PAULBAAL MAS M55H 55:11.7+13:02.1+30,92%76,38%-4,66%-0,11%
151125VRANCKEN JIMMYGELRODE MAS M45H 55:16.9+13:07.3+31,12%76,26%-4,83%-0,27%
161139WOUTERS NICKYWILSELE MAS M35H 55:37.3+13:27.7+31,93%75,80%-5,47%-0,88%
171142TESTELMANS GLENNWESTERLO SENH 56:02.3+13:52.7+32,92%75,23%-6,26%-1,64%
181129CHEVROLET JELISBAAL SENH 56:32.0+14:22.4+34,09%74,58%-7,20%-2,54%
191141VAN CAUWENBERGHS PETERHEUSDEN (LIMB.) MAS M35H 57:08.5+14:58.9+35,54%73,78%-8,36%-3,64%
201136ANTHONIS RUDITREMELO MAS M55H 57:12.9+15:03.3+35,71%73,69%-8,49%-3,77%
211124VAN STYVOORT TOMBEGIJNENDIJK MAS M45H 57:54.4+15:44.8+37,35%72,81%-9,81%-5,03%
221143TESTELMANS LUCHERSELT MAS M55H 58:39.5+16:29.9+39,13%71,87%-11,23%-6,39%
231134VERDOODT KOENBAAL MAS M50H 59:33.0+17:23.4+41,25%70,80%-12,92%-8,01%
241154TORFS STIJNGELRODE - SPORTIVA GELRODE SENH 1:01:19.8+19:10.2+45,47%68,74%-16,30%-11,24%
251145JANSSENS PATRICKBEGIJNENDIJK MAS M45H 1:03:07.0+20:57.4+49,71%66,80%-19,69%-14,48%
261140PEETERS WIMHAKENDOVER MAS M40H 1:05:09.7+23:00.1+54,56%64,70%-23,56%-18,19%